sensor_id;sensor_type;location;lat;lon;timestamp;P1;durP1;ratioP1;P2;durP2;ratioP2
13425;SDS011;6785;57.918;12.530;2023-05-17T00:00:58;23.63;;;6.13;;
13425;SDS011;6785;57.918;12.530;2023-05-17T00:03:25;17.97;;;6.03;;
13425;SDS011;6785;57.918;12.530;2023-05-17T00:05:52;22.37;;;6.03;;
13425;SDS011;6785;57.918;12.530;2023-05-17T00:08:20;18.43;;;5.87;;
13425;SDS011;6785;57.918;12.530;2023-05-17T00:10:46;27.77;;;6.40;;
13425;SDS011;6785;57.918;12.530;2023-05-17T00:13:13;21.47;;;5.73;;
13425;SDS011;6785;57.918;12.530;2023-05-17T00:15:40;19.47;;;6.03;;
13425;SDS011;6785;57.918;12.530;2023-05-17T00:18:06;24.13;;;6.00;;
13425;SDS011;6785;57.918;12.530;2023-05-17T00:20:33;17.40;;;5.87;;
13425;SDS011;6785;57.918;12.530;2023-05-17T00:23:00;17.83;;;5.17;;
13425;SDS011;6785;57.918;12.530;2023-05-17T00:25:29;27.87;;;6.40;;
13425;SDS011;6785;57.918;12.530;2023-05-17T00:27:56;19.07;;;6.10;;
13425;SDS011;6785;57.918;12.530;2023-05-17T00:30:22;16.73;;;5.83;;
13425;SDS011;6785;57.918;12.530;2023-05-17T00:32:49;26.43;;;5.97;;
13425;SDS011;6785;57.918;12.530;2023-05-17T00:35:16;20.30;;;6.10;;
13425;SDS011;6785;57.918;12.530;2023-05-17T00:37:42;15.97;;;5.57;;
13425;SDS011;6785;57.918;12.530;2023-05-17T00:40:12;24.07;;;6.57;;
13425;SDS011;6785;57.918;12.530;2023-05-17T00:42:41;25.93;;;6.70;;
13425;SDS011;6785;57.918;12.530;2023-05-17T00:45:08;21.17;;;6.47;;
13425;SDS011;6785;57.918;12.530;2023-05-17T00:47:35;18.70;;;5.63;;
13425;SDS011;6785;57.918;12.530;2023-05-17T00:50:02;19.13;;;5.60;;
13425;SDS011;6785;57.918;12.530;2023-05-17T00:52:30;16.90;;;4.77;;
13425;SDS011;6785;57.918;12.530;2023-05-17T00:54:57;11.80;;;3.77;;
13425;SDS011;6785;57.918;12.530;2023-05-17T00:57:24;7.60;;;3.27;;
13425;SDS011;6785;57.918;12.530;2023-05-17T00:59:52;7.53;;;2.83;;
13425;SDS011;6785;57.918;12.530;2023-05-17T01:02:20;10.87;;;3.43;;
13425;SDS011;6785;57.918;12.530;2023-05-17T01:04:47;5.77;;;2.57;;
13425;SDS011;6785;57.918;12.530;2023-05-17T01:07:14;6.23;;;1.90;;
13425;SDS011;6785;57.918;12.530;2023-05-17T01:09:41;3.73;;;2.10;;
13425;SDS011;6785;57.918;12.530;2023-05-17T01:12:10;4.77;;;2.10;;
13425;SDS011;6785;57.918;12.530;2023-05-17T01:14:49;3.17;;;1.60;;
13425;SDS011;6785;57.918;12.530;2023-05-17T01:17:22;4.57;;;1.97;;
13425;SDS011;6785;57.918;12.530;2023-05-17T01:20:00;6.10;;;1.47;;
13425;SDS011;6785;57.918;12.530;2023-05-17T01:22:38;3.23;;;1.40;;
13425;SDS011;6785;57.918;12.530;2023-05-17T01:25:11;3.30;;;1.50;;
13425;SDS011;6785;57.918;12.530;2023-05-17T01:27:50;1.63;;;1.50;;
13425;SDS011;6785;57.918;12.530;2023-05-17T01:30:20;1.77;;;1.27;;
13425;SDS011;6785;57.918;12.530;2023-05-17T01:32:50;3.00;;;1.30;;
13425;SDS011;6785;57.918;12.530;2023-05-17T01:35:18;2.17;;;1.43;;
13425;SDS011;6785;57.918;12.530;2023-05-17T01:37:45;6.47;;;1.40;;
13425;SDS011;6785;57.918;12.530;2023-05-17T01:40:12;2.07;;;1.27;;
13425;SDS011;6785;57.918;12.530;2023-05-17T01:42:40;3.10;;;1.30;;
13425;SDS011;6785;57.918;12.530;2023-05-17T01:45:11;1.37;;;1.13;;
13425;SDS011;6785;57.918;12.530;2023-05-17T01:47:44;2.17;;;1.00;;
13425;SDS011;6785;57.918;12.530;2023-05-17T01:50:16;1.13;;;1.03;;
13425;SDS011;6785;57.918;12.530;2023-05-17T01:52:47;1.43;;;1.20;;
13425;SDS011;6785;57.918;12.530;2023-05-17T01:55:18;1.00;;;0.83;;
13425;SDS011;6785;57.918;12.530;2023-05-17T01:57:51;1.90;;;0.97;;
13425;SDS011;6785;57.918;12.530;2023-05-17T02:00:22;2.73;;;0.73;;
13425;SDS011;6785;57.918;12.530;2023-05-17T02:02:50;1.47;;;1.00;;
13425;SDS011;6785;57.918;12.530;2023-05-17T02:05:17;3.43;;;1.20;;
13425;SDS011;6785;57.918;12.530;2023-05-17T02:07:43;3.63;;;1.20;;
13425;SDS011;6785;57.918;12.530;2023-05-17T02:10:10;3.93;;;1.10;;
13425;SDS011;6785;57.918;12.530;2023-05-17T02:12:37;1.63;;;1.20;;
13425;SDS011;6785;57.918;12.530;2023-05-17T02:15:04;0.70;;;0.70;;
13425;SDS011;6785;57.918;12.530;2023-05-17T02:17:36;5.40;;;0.90;;
13425;SDS011;6785;57.918;12.530;2023-05-17T02:20:03;1.77;;;0.80;;
13425;SDS011;6785;57.918;12.530;2023-05-17T02:22:31;4.97;;;1.10;;
13425;SDS011;6785;57.918;12.530;2023-05-17T02:24:57;3.97;;;1.17;;
13425;SDS011;6785;57.918;12.530;2023-05-17T02:27:24;5.77;;;1.17;;
13425;SDS011;6785;57.918;12.530;2023-05-17T02:29:51;3.53;;;1.33;;
13425;SDS011;6785;57.918;12.530;2023-05-17T02:32:18;3.17;;;1.17;;
13425;SDS011;6785;57.918;12.530;2023-05-17T02:34:46;4.37;;;1.00;;
13425;SDS011;6785;57.918;12.530;2023-05-17T02:37:12;2.93;;;1.27;;
13425;SDS011;6785;57.918;12.530;2023-05-17T02:39:39;3.10;;;0.97;;
13425;SDS011;6785;57.918;12.530;2023-05-17T02:42:06;3.37;;;1.10;;
13425;SDS011;6785;57.918;12.530;2023-05-17T02:44:33;5.40;;;0.90;;
13425;SDS011;6785;57.918;12.530;2023-05-17T02:46:59;3.20;;;1.10;;
13425;SDS011;6785;57.918;12.530;2023-05-17T02:49:26;5.17;;;2.10;;
13425;SDS011;6785;57.918;12.530;2023-05-17T02:51:54;1.90;;;1.00;;
13425;SDS011;6785;57.918;12.530;2023-05-17T02:54:21;2.13;;;1.20;;
13425;SDS011;6785;57.918;12.530;2023-05-17T02:56:48;3.43;;;1.17;;
13425;SDS011;6785;57.918;12.530;2023-05-17T02:59:15;0.90;;;0.90;;
13425;SDS011;6785;57.918;12.530;2023-05-17T03:01:41;2.27;;;0.87;;
13425;SDS011;6785;57.918;12.530;2023-05-17T03:04:08;1.20;;;1.10;;
13425;SDS011;6785;57.918;12.530;2023-05-17T03:06:36;5.97;;;1.20;;
13425;SDS011;6785;57.918;12.530;2023-05-17T03:09:04;2.43;;;0.97;;
13425;SDS011;6785;57.918;12.530;2023-05-17T03:11:31;3.77;;;1.43;;
13425;SDS011;6785;57.918;12.530;2023-05-17T03:13:57;1.80;;;1.03;;
13425;SDS011;6785;57.918;12.530;2023-05-17T03:16:24;4.30;;;1.50;;
13425;SDS011;6785;57.918;12.530;2023-05-17T03:18:51;3.20;;;0.90;;
13425;SDS011;6785;57.918;12.530;2023-05-17T03:21:18;3.77;;;1.10;;
13425;SDS011;6785;57.918;12.530;2023-05-17T03:23:44;1.10;;;1.00;;
13425;SDS011;6785;57.918;12.530;2023-05-17T03:26:12;4.37;;;1.30;;
13425;SDS011;6785;57.918;12.530;2023-05-17T03:28:39;2.87;;;1.10;;
13425;SDS011;6785;57.918;12.530;2023-05-17T03:31:06;2.23;;;1.10;;
13425;SDS011;6785;57.918;12.530;2023-05-17T03:33:33;4.10;;;1.33;;
13425;SDS011;6785;57.918;12.530;2023-05-17T03:36:00;1.23;;;0.80;;
13425;SDS011;6785;57.918;12.530;2023-05-17T03:38:26;2.30;;;0.90;;
13425;SDS011;6785;57.918;12.530;2023-05-17T03:40:53;1.77;;;1.30;;
13425;SDS011;6785;57.918;12.530;2023-05-17T03:43:21;1.93;;;1.10;;
13425;SDS011;6785;57.918;12.530;2023-05-17T03:45:48;2.53;;;1.17;;
13425;SDS011;6785;57.918;12.530;2023-05-17T03:48:15;2.63;;;1.40;;
13425;SDS011;6785;57.918;12.530;2023-05-17T03:50:41;4.00;;;1.40;;
13425;SDS011;6785;57.918;12.530;2023-05-17T03:53:08;3.50;;;1.10;;
13425;SDS011;6785;57.918;12.530;2023-05-17T03:55:35;3.60;;;1.20;;
13425;SDS011;6785;57.918;12.530;2023-05-17T03:58:01;2.53;;;1.47;;
13425;SDS011;6785;57.918;12.530;2023-05-17T04:00:30;3.63;;;1.10;;
13425;SDS011;6785;57.918;12.530;2023-05-17T04:02:57;3.00;;;1.10;;
13425;SDS011;6785;57.918;12.530;2023-05-17T04:05:24;1.07;;;1.00;;
13425;SDS011;6785;57.918;12.530;2023-05-17T04:07:51;0.90;;;0.73;;
13425;SDS011;6785;57.918;12.530;2023-05-17T04:10:18;1.50;;;0.87;;
13425;SDS011;6785;57.918;12.530;2023-05-17T04:12:45;1.20;;;0.77;;
13425;SDS011;6785;57.918;12.530;2023-05-17T04:15:12;0.60;;;0.60;;
13425;SDS011;6785;57.918;12.530;2023-05-17T04:17:40;2.60;;;0.87;;
13425;SDS011;6785;57.918;12.530;2023-05-17T04:20:07;0.70;;;0.70;;
13425;SDS011;6785;57.918;12.530;2023-05-17T04:22:34;2.73;;;0.80;;
13425;SDS011;6785;57.918;12.530;2023-05-17T04:25:01;1.70;;;0.80;;
13425;SDS011;6785;57.918;12.530;2023-05-17T04:27:28;0.73;;;0.63;;
13425;SDS011;6785;57.918;12.530;2023-05-17T04:29:54;2.27;;;0.50;;
13425;SDS011;6785;57.918;12.530;2023-05-17T04:32:21;0.40;;;0.40;;
13425;SDS011;6785;57.918;12.530;2023-05-17T04:34:49;0.40;;;0.40;;
13425;SDS011;6785;57.918;12.530;2023-05-17T04:37:17;0.40;;;0.40;;
13425;SDS011;6785;57.918;12.530;2023-05-17T04:39:44;1.80;;;0.60;;
13425;SDS011;6785;57.918;12.530;2023-05-17T04:42:10;0.30;;;0.30;;
13425;SDS011;6785;57.918;12.530;2023-05-17T04:44:37;0.40;;;0.40;;
13425;SDS011;6785;57.918;12.530;2023-05-17T04:47:04;0.60;;;0.60;;
13425;SDS011;6785;57.918;12.530;2023-05-17T04:49:30;0.30;;;0.30;;
13425;SDS011;6785;57.918;12.530;2023-05-17T04:51:59;0.40;;;0.40;;
13425;SDS011;6785;57.918;12.530;2023-05-17T04:54:25;0.50;;;0.50;;
13425;SDS011;6785;57.918;12.530;2023-05-17T04:56:52;0.50;;;0.50;;
13425;SDS011;6785;57.918;12.530;2023-05-17T04:59:19;0.43;;;0.43;;
13425;SDS011;6785;57.918;12.530;2023-05-17T05:01:45;0.57;;;0.57;;
13425;SDS011;6785;57.918;12.530;2023-05-17T05:04:12;0.30;;;0.30;;
13425;SDS011;6785;57.918;12.530;2023-05-17T05:06:39;0.20;;;0.20;;
13425;SDS011;6785;57.918;12.530;2023-05-17T05:09:07;0.30;;;0.30;;
13425;SDS011;6785;57.918;12.530;2023-05-17T05:11:33;0.40;;;0.40;;
13425;SDS011;6785;57.918;12.530;2023-05-17T05:14:01;0.30;;;0.30;;
13425;SDS011;6785;57.918;12.530;2023-05-17T05:16:27;0.30;;;0.30;;
13425;SDS011;6785;57.918;12.530;2023-05-17T05:18:54;1.20;;;0.30;;
13425;SDS011;6785;57.918;12.530;2023-05-17T05:21:21;0.30;;;0.30;;
13425;SDS011;6785;57.918;12.530;2023-05-17T05:23:47;0.70;;;0.70;;
13425;SDS011;6785;57.918;12.530;2023-05-17T05:26:15;0.40;;;0.40;;
13425;SDS011;6785;57.918;12.530;2023-05-17T05:28:42;0.40;;;0.40;;
13425;SDS011;6785;57.918;12.530;2023-05-17T05:31:09;0.33;;;0.33;;
13425;SDS011;6785;57.918;12.530;2023-05-17T05:33:36;0.40;;;0.40;;
13425;SDS011;6785;57.918;12.530;2023-05-17T05:36:02;0.23;;;0.23;;
13425;SDS011;6785;57.918;12.530;2023-05-17T05:38:30;0.40;;;0.40;;
13425;SDS011;6785;57.918;12.530;2023-05-17T05:40:56;0.97;;;0.40;;
13425;SDS011;6785;57.918;12.530;2023-05-17T05:43:24;0.50;;;0.50;;
13425;SDS011;6785;57.918;12.530;2023-05-17T05:45:51;0.30;;;0.30;;
13425;SDS011;6785;57.918;12.530;2023-05-17T05:48:18;0.37;;;0.37;;
13425;SDS011;6785;57.918;12.530;2023-05-17T05:50:44;0.50;;;0.50;;
13425;SDS011;6785;57.918;12.530;2023-05-17T05:53:11;0.47;;;0.47;;
13425;SDS011;6785;57.918;12.530;2023-05-17T05:55:39;0.50;;;0.50;;
13425;SDS011;6785;57.918;12.530;2023-05-17T05:58:07;0.30;;;0.30;;
13425;SDS011;6785;57.918;12.530;2023-05-17T06:00:35;0.40;;;0.40;;
13425;SDS011;6785;57.918;12.530;2023-05-17T06:03:02;0.50;;;0.50;;
13425;SDS011;6785;57.918;12.530;2023-05-17T06:05:30;0.53;;;0.50;;
13425;SDS011;6785;57.918;12.530;2023-05-17T06:07:56;0.50;;;0.50;;
13425;SDS011;6785;57.918;12.530;2023-05-17T06:10:23;0.50;;;0.50;;
13425;SDS011;6785;57.918;12.530;2023-05-17T06:12:50;0.50;;;0.50;;
13425;SDS011;6785;57.918;12.530;2023-05-17T06:15:17;0.70;;;0.70;;
13425;SDS011;6785;57.918;12.530;2023-05-17T06:17:45;0.50;;;0.50;;
13425;SDS011;6785;57.918;12.530;2023-05-17T06:20:12;3.37;;;0.50;;
13425;SDS011;6785;57.918;12.530;2023-05-17T06:22:39;0.53;;;0.50;;
13425;SDS011;6785;57.918;12.530;2023-05-17T06:25:06;0.40;;;0.40;;
13425;SDS011;6785;57.918;12.530;2023-05-17T06:27:34;0.50;;;0.50;;
13425;SDS011;6785;57.918;12.530;2023-05-17T06:30:01;0.40;;;0.40;;
13425;SDS011;6785;57.918;12.530;2023-05-17T06:32:29;0.50;;;0.50;;
13425;SDS011;6785;57.918;12.530;2023-05-17T06:34:57;1.00;;;0.50;;
13425;SDS011;6785;57.918;12.530;2023-05-17T06:37:24;0.40;;;0.40;;
13425;SDS011;6785;57.918;12.530;2023-05-17T06:39:51;0.40;;;0.40;;
13425;SDS011;6785;57.918;12.530;2023-05-17T06:42:18;0.57;;;0.57;;
13425;SDS011;6785;57.918;12.530;2023-05-17T06:44:45;0.60;;;0.60;;
13425;SDS011;6785;57.918;12.530;2023-05-17T06:47:12;0.50;;;0.50;;
13425;SDS011;6785;57.918;12.530;2023-05-17T06:49:38;0.60;;;0.60;;
13425;SDS011;6785;57.918;12.530;2023-05-17T06:52:06;0.50;;;0.50;;
13425;SDS011;6785;57.918;12.530;2023-05-17T06:54:33;0.57;;;0.53;;
13425;SDS011;6785;57.918;12.530;2023-05-17T06:57:00;0.50;;;0.50;;
13425;SDS011;6785;57.918;12.530;2023-05-17T06:59:27;1.77;;;0.70;;
13425;SDS011;6785;57.918;12.530;2023-05-17T07:01:54;0.70;;;0.70;;
13425;SDS011;6785;57.918;12.530;2023-05-17T07:04:24;1.13;;;0.70;;
13425;SDS011;6785;57.918;12.530;2023-05-17T07:06:51;0.70;;;0.70;;
13425;SDS011;6785;57.918;12.530;2023-05-17T07:09:19;0.97;;;0.60;;
13425;SDS011;6785;57.918;12.530;2023-05-17T07:11:46;0.60;;;0.60;;
13425;SDS011;6785;57.918;12.530;2023-05-17T07:14:13;0.53;;;0.53;;
13425;SDS011;6785;57.918;12.530;2023-05-17T07:16:40;1.23;;;0.70;;
13425;SDS011;6785;57.918;12.530;2023-05-17T07:19:06;0.90;;;0.90;;
13425;SDS011;6785;57.918;12.530;2023-05-17T07:21:33;1.03;;;0.93;;
13425;SDS011;6785;57.918;12.530;2023-05-17T07:24:00;1.00;;;0.70;;
13425;SDS011;6785;57.918;12.530;2023-05-17T07:26:28;2.23;;;1.90;;
13425;SDS011;6785;57.918;12.530;2023-05-17T07:28:55;3.00;;;1.70;;
13425;SDS011;6785;57.918;12.530;2023-05-17T07:31:22;1.80;;;1.70;;
13425;SDS011;6785;57.918;12.530;2023-05-17T07:33:49;1.17;;;1.00;;
13425;SDS011;6785;57.918;12.530;2023-05-17T07:36:15;2.30;;;1.00;;
13425;SDS011;6785;57.918;12.530;2023-05-17T07:38:42;2.37;;;1.40;;
13425;SDS011;6785;57.918;12.530;2023-05-17T07:41:09;1.87;;;1.30;;
13425;SDS011;6785;57.918;12.530;2023-05-17T07:43:39;4.07;;;1.20;;
13425;SDS011;6785;57.918;12.530;2023-05-17T07:46:05;4.00;;;1.00;;
13425;SDS011;6785;57.918;12.530;2023-05-17T07:48:32;3.47;;;1.00;;
13425;SDS011;6785;57.918;12.530;2023-05-17T07:50:59;1.43;;;0.87;;
13425;SDS011;6785;57.918;12.530;2023-05-17T07:53:26;0.90;;;0.90;;
13425;SDS011;6785;57.918;12.530;2023-05-17T07:55:52;2.43;;;1.10;;
13425;SDS011;6785;57.918;12.530;2023-05-17T07:58:19;3.40;;;1.20;;
13425;SDS011;6785;57.918;12.530;2023-05-17T08:00:47;1.83;;;1.20;;
13425;SDS011;6785;57.918;12.530;2023-05-17T08:03:14;2.37;;;1.00;;
13425;SDS011;6785;57.918;12.530;2023-05-17T08:05:41;1.63;;;1.10;;
13425;SDS011;6785;57.918;12.530;2023-05-17T08:08:07;2.07;;;0.93;;
13425;SDS011;6785;57.918;12.530;2023-05-17T08:10:34;2.03;;;0.87;;
13425;SDS011;6785;57.918;12.530;2023-05-17T08:13:01;0.93;;;0.90;;
13425;SDS011;6785;57.918;12.530;2023-05-17T08:15:28;3.50;;;1.13;;
13425;SDS011;6785;57.918;12.530;2023-05-17T08:17:57;2.23;;;1.00;;
13425;SDS011;6785;57.918;12.530;2023-05-17T08:20:24;2.10;;;1.10;;
13425;SDS011;6785;57.918;12.530;2023-05-17T08:22:50;1.07;;;1.03;;
13425;SDS011;6785;57.918;12.530;2023-05-17T08:25:18;1.43;;;1.10;;
13425;SDS011;6785;57.918;12.530;2023-05-17T08:27:45;2.97;;;1.20;;
13425;SDS011;6785;57.918;12.530;2023-05-17T08:30:12;4.37;;;1.00;;
13425;SDS011;6785;57.918;12.530;2023-05-17T08:32:39;0.77;;;0.77;;
13425;SDS011;6785;57.918;12.530;2023-05-17T08:35:07;1.63;;;1.50;;
13425;SDS011;6785;57.918;12.530;2023-05-17T08:37:34;0.70;;;0.70;;
13425;SDS011;6785;57.918;12.530;2023-05-17T08:40:02;1.70;;;1.00;;
13425;SDS011;6785;57.918;12.530;2023-05-17T08:42:29;0.80;;;0.80;;
13425;SDS011;6785;57.918;12.530;2023-05-17T08:44:56;4.60;;;1.07;;
13425;SDS011;6785;57.918;12.530;2023-05-17T08:47:24;1.10;;;0.97;;
13425;SDS011;6785;57.918;12.530;2023-05-17T08:49:57;1.00;;;0.90;;
13425;SDS011;6785;57.918;12.530;2023-05-17T08:52:29;1.40;;;0.83;;
13425;SDS011;6785;57.918;12.530;2023-05-17T08:54:56;0.97;;;0.90;;
13425;SDS011;6785;57.918;12.530;2023-05-17T08:57:24;4.67;;;1.00;;
13425;SDS011;6785;57.918;12.530;2023-05-17T08:59:55;1.00;;;0.93;;
13425;SDS011;6785;57.918;12.530;2023-05-17T09:02:24;0.90;;;0.90;;
13425;SDS011;6785;57.918;12.530;2023-05-17T09:04:53;0.90;;;0.90;;
13425;SDS011;6785;57.918;12.530;2023-05-17T09:07:20;2.73;;;0.83;;
13425;SDS011;6785;57.918;12.530;2023-05-17T09:09:50;1.97;;;0.80;;
13425;SDS011;6785;57.918;12.530;2023-05-17T09:12:18;0.60;;;0.60;;
13425;SDS011;6785;57.918;12.530;2023-05-17T09:14:44;0.77;;;0.77;;
13425;SDS011;6785;57.918;12.530;2023-05-17T09:17:12;1.03;;;0.83;;
13425;SDS011;6785;57.918;12.530;2023-05-17T09:19:41;1.27;;;0.80;;
13425;SDS011;6785;57.918;12.530;2023-05-17T09:22:11;1.70;;;0.80;;
13425;SDS011;6785;57.918;12.530;2023-05-17T09:24:39;0.87;;;0.70;;
13425;SDS011;6785;57.918;12.530;2023-05-17T09:27:08;2.30;;;0.73;;
13425;SDS011;6785;57.918;12.530;2023-05-17T09:29:39;3.90;;;0.83;;
13425;SDS011;6785;57.918;12.530;2023-05-17T09:32:13;0.80;;;0.80;;
13425;SDS011;6785;57.918;12.530;2023-05-17T09:34:40;2.33;;;0.70;;
13425;SDS011;6785;57.918;12.530;2023-05-17T09:37:14;1.03;;;0.93;;
13425;SDS011;6785;57.918;12.530;2023-05-17T09:39:43;1.70;;;1.07;;
13425;SDS011;6785;57.918;12.530;2023-05-17T09:42:13;0.70;;;0.70;;
13425;SDS011;6785;57.918;12.530;2023-05-17T09:44:46;1.93;;;0.70;;
13425;SDS011;6785;57.918;12.530;2023-05-17T09:47:22;1.10;;;0.63;;
13425;SDS011;6785;57.918;12.530;2023-05-17T09:49:49;0.73;;;0.73;;
13425;SDS011;6785;57.918;12.530;2023-05-17T09:52:17;2.43;;;0.80;;
13425;SDS011;6785;57.918;12.530;2023-05-17T09:54:51;1.87;;;0.73;;
13425;SDS011;6785;57.918;12.530;2023-05-17T09:57:21;0.60;;;0.60;;
13425;SDS011;6785;57.918;12.530;2023-05-17T09:59:48;0.60;;;0.60;;
13425;SDS011;6785;57.918;12.530;2023-05-17T10:02:19;0.60;;;0.60;;
13425;SDS011;6785;57.918;12.530;2023-05-17T10:04:47;0.57;;;0.57;;
13425;SDS011;6785;57.918;12.530;2023-05-17T10:07:17;1.97;;;0.70;;
13425;SDS011;6785;57.918;12.530;2023-05-17T10:09:45;0.67;;;0.67;;
13425;SDS011;6785;57.918;12.530;2023-05-17T10:12:14;1.53;;;0.60;;
13425;SDS011;6785;57.918;12.530;2023-05-17T10:14:44;0.87;;;0.50;;
13425;SDS011;6785;57.918;12.530;2023-05-17T10:17:11;0.97;;;0.80;;
13425;SDS011;6785;57.918;12.530;2023-05-17T10:19:39;0.70;;;0.70;;
13425;SDS011;6785;57.918;12.530;2023-05-17T10:22:06;1.00;;;0.80;;
13425;SDS011;6785;57.918;12.530;2023-05-17T10:24:34;1.30;;;0.80;;
13425;SDS011;6785;57.918;12.530;2023-05-17T10:27:02;1.93;;;0.60;;
13425;SDS011;6785;57.918;12.530;2023-05-17T10:29:30;1.40;;;0.57;;
13425;SDS011;6785;57.918;12.530;2023-05-17T10:32:00;1.00;;;0.93;;
13425;SDS011;6785;57.918;12.530;2023-05-17T10:34:31;0.80;;;0.80;;
13425;SDS011;6785;57.918;12.530;2023-05-17T10:37:00;1.00;;;0.67;;
13425;SDS011;6785;57.918;12.530;2023-05-17T10:39:28;1.77;;;0.83;;
13425;SDS011;6785;57.918;12.530;2023-05-17T10:41:58;1.00;;;0.70;;
13425;SDS011;6785;57.918;12.530;2023-05-17T10:44:26;2.57;;;0.73;;
13425;SDS011;6785;57.918;12.530;2023-05-17T10:46:57;1.33;;;0.67;;
13425;SDS011;6785;57.918;12.530;2023-05-17T10:49:27;1.23;;;0.87;;
13425;SDS011;6785;57.918;12.530;2023-05-17T10:51:55;0.80;;;0.57;;
13425;SDS011;6785;57.918;12.530;2023-05-17T10:54:32;1.17;;;0.63;;
13425;SDS011;6785;57.918;12.530;2023-05-17T10:57:00;0.97;;;0.80;;
13425;SDS011;6785;57.918;12.530;2023-05-17T10:59:30;1.50;;;0.67;;
13425;SDS011;6785;57.918;12.530;2023-05-17T11:01:58;3.83;;;0.70;;
13425;SDS011;6785;57.918;12.530;2023-05-17T11:04:32;3.30;;;0.70;;
13425;SDS011;6785;57.918;12.530;2023-05-17T11:09:50;1.90;;;0.80;;
13425;SDS011;6785;57.918;12.530;2023-05-17T11:12:28;0.67;;;0.53;;
13425;SDS011;6785;57.918;12.530;2023-05-17T11:14:58;0.63;;;0.60;;
13425;SDS011;6785;57.918;12.530;2023-05-17T11:17:27;1.50;;;0.53;;
13425;SDS011;6785;57.918;12.530;2023-05-17T11:20:04;3.70;;;0.60;;
13425;SDS011;6785;57.918;12.530;2023-05-17T11:22:35;1.30;;;0.80;;
13425;SDS011;6785;57.918;12.530;2023-05-17T11:25:08;0.40;;;0.40;;
13425;SDS011;6785;57.918;12.530;2023-05-17T11:27:37;0.63;;;0.60;;
13425;SDS011;6785;57.918;12.530;2023-05-17T11:30:18;0.50;;;0.50;;
13425;SDS011;6785;57.918;12.530;2023-05-17T11:32:48;1.10;;;0.60;;
13425;SDS011;6785;57.918;12.530;2023-05-17T11:35:21;0.70;;;0.60;;
13425;SDS011;6785;57.918;12.530;2023-05-17T11:37:50;0.47;;;0.47;;
13425;SDS011;6785;57.918;12.530;2023-05-17T11:40:23;1.10;;;0.60;;
13425;SDS011;6785;57.918;12.530;2023-05-17T11:43:14;2.30;;;0.90;;
13425;SDS011;6785;57.918;12.530;2023-05-17T11:45:42;0.60;;;0.50;;
13425;SDS011;6785;57.918;12.530;2023-05-17T11:48:14;1.63;;;0.60;;
13425;SDS011;6785;57.918;12.530;2023-05-17T11:50:44;0.53;;;0.50;;
13425;SDS011;6785;57.918;12.530;2023-05-17T11:53:12;0.40;;;0.40;;
13425;SDS011;6785;57.918;12.530;2023-05-17T11:55:40;0.60;;;0.60;;
13425;SDS011;6785;57.918;12.530;2023-05-17T11:58:11;2.63;;;0.60;;
13425;SDS011;6785;57.918;12.530;2023-05-17T12:00:38;2.27;;;0.73;;
13425;SDS011;6785;57.918;12.530;2023-05-17T12:03:19;1.17;;;0.60;;
13425;SDS011;6785;57.918;12.530;2023-05-17T12:05:48;1.73;;;0.87;;
13425;SDS011;6785;57.918;12.530;2023-05-17T12:08:17;1.60;;;0.63;;
13425;SDS011;6785;57.918;12.530;2023-05-17T12:10:45;2.97;;;0.67;;
13425;SDS011;6785;57.918;12.530;2023-05-17T12:13:14;2.13;;;0.70;;
13425;SDS011;6785;57.918;12.530;2023-05-17T12:15:43;1.23;;;0.80;;
13425;SDS011;6785;57.918;12.530;2023-05-17T12:18:13;1.40;;;1.00;;
13425;SDS011;6785;57.918;12.530;2023-05-17T12:20:54;3.63;;;1.00;;
13425;SDS011;6785;57.918;12.530;2023-05-17T12:23:26;2.37;;;0.70;;
13425;SDS011;6785;57.918;12.530;2023-05-17T12:26:00;2.00;;;0.83;;
13425;SDS011;6785;57.918;12.530;2023-05-17T12:28:28;1.00;;;0.63;;
13425;SDS011;6785;57.918;12.530;2023-05-17T12:30:55;1.33;;;1.00;;
13425;SDS011;6785;57.918;12.530;2023-05-17T12:33:25;1.97;;;0.60;;
13425;SDS011;6785;57.918;12.530;2023-05-17T12:35:52;1.03;;;0.70;;
13425;SDS011;6785;57.918;12.530;2023-05-17T12:38:20;2.93;;;0.70;;
13425;SDS011;6785;57.918;12.530;2023-05-17T12:40:47;1.10;;;0.67;;
13425;SDS011;6785;57.918;12.530;2023-05-17T12:43:14;1.17;;;0.80;;
13425;SDS011;6785;57.918;12.530;2023-05-17T12:45:42;0.90;;;0.70;;
13425;SDS011;6785;57.918;12.530;2023-05-17T12:48:09;3.40;;;0.70;;
13425;SDS011;6785;57.918;12.530;2023-05-17T12:50:36;1.43;;;0.67;;
13425;SDS011;6785;57.918;12.530;2023-05-17T12:53:07;0.60;;;0.60;;
13425;SDS011;6785;57.918;12.530;2023-05-17T12:55:35;1.87;;;0.70;;
13425;SDS011;6785;57.918;12.530;2023-05-17T12:58:02;2.37;;;0.70;;
13425;SDS011;6785;57.918;12.530;2023-05-17T13:00:29;2.87;;;0.77;;
13425;SDS011;6785;57.918;12.530;2023-05-17T13:02:56;1.70;;;0.70;;
13425;SDS011;6785;57.918;12.530;2023-05-17T13:05:23;3.17;;;0.90;;
13425;SDS011;6785;57.918;12.530;2023-05-17T13:07:50;1.67;;;0.60;;
13425;SDS011;6785;57.918;12.530;2023-05-17T13:10:22;0.70;;;0.63;;
13425;SDS011;6785;57.918;12.530;2023-05-17T13:12:54;2.03;;;0.73;;
13425;SDS011;6785;57.918;12.530;2023-05-17T13:15:25;2.40;;;1.00;;
13425;SDS011;6785;57.918;12.530;2023-05-17T13:17:55;0.93;;;0.70;;
13425;SDS011;6785;57.918;12.530;2023-05-17T13:20:22;0.73;;;0.70;;
13425;SDS011;6785;57.918;12.530;2023-05-17T13:22:49;3.70;;;0.87;;
13425;SDS011;6785;57.918;12.530;2023-05-17T13:25:16;0.70;;;0.70;;
13425;SDS011;6785;57.918;12.530;2023-05-17T13:27:44;1.73;;;0.50;;
13425;SDS011;6785;57.918;12.530;2023-05-17T13:30:13;1.97;;;0.63;;
13425;SDS011;6785;57.918;12.530;2023-05-17T13:32:41;1.67;;;0.70;;
13425;SDS011;6785;57.918;12.530;2023-05-17T13:35:07;0.70;;;0.70;;
13425;SDS011;6785;57.918;12.530;2023-05-17T13:37:34;1.77;;;0.60;;
13425;SDS011;6785;57.918;12.530;2023-05-17T13:40:01;1.10;;;0.67;;
13425;SDS011;6785;57.918;12.530;2023-05-17T13:42:29;0.80;;;0.80;;
13425;SDS011;6785;57.918;12.530;2023-05-17T13:44:58;0.87;;;0.80;;
13425;SDS011;6785;57.918;12.530;2023-05-17T13:47:25;2.90;;;0.90;;
13425;SDS011;6785;57.918;12.530;2023-05-17T13:49:53;6.80;;;1.20;;
13425;SDS011;6785;57.918;12.530;2023-05-17T13:52:20;8.87;;;1.20;;
13425;SDS011;6785;57.918;12.530;2023-05-17T13:54:47;2.00;;;0.67;;
13425;SDS011;6785;57.918;12.530;2023-05-17T13:57:14;1.60;;;1.03;;
13425;SDS011;6785;57.918;12.530;2023-05-17T13:59:40;0.63;;;0.63;;
13425;SDS011;6785;57.918;12.530;2023-05-17T14:02:09;1.10;;;0.90;;
13425;SDS011;6785;57.918;12.530;2023-05-17T14:04:36;7.30;;;1.10;;
13425;SDS011;6785;57.918;12.530;2023-05-17T14:07:03;1.90;;;1.00;;
13425;SDS011;6785;57.918;12.530;2023-05-17T14:09:30;1.80;;;0.80;;
13425;SDS011;6785;57.918;12.530;2023-05-17T14:11:58;1.83;;;0.87;;
13425;SDS011;6785;57.918;12.530;2023-05-17T14:14:25;3.63;;;1.07;;
13425;SDS011;6785;57.918;12.530;2023-05-17T14:16:53;5.13;;;1.30;;
13425;SDS011;6785;57.918;12.530;2023-05-17T14:19:21;0.80;;;0.80;;
13425;SDS011;6785;57.918;12.530;2023-05-17T14:21:48;2.23;;;0.90;;
13425;SDS011;6785;57.918;12.530;2023-05-17T14:24:15;2.53;;;0.83;;
13425;SDS011;6785;57.918;12.530;2023-05-17T14:26:42;1.73;;;0.80;;
13425;SDS011;6785;57.918;12.530;2023-05-17T14:29:09;2.43;;;0.70;;
13425;SDS011;6785;57.918;12.530;2023-05-17T14:31:35;1.47;;;0.90;;
13425;SDS011;6785;57.918;12.530;2023-05-17T14:34:02;3.60;;;1.07;;
13425;SDS011;6785;57.918;12.530;2023-05-17T14:36:30;1.03;;;0.93;;
13425;SDS011;6785;57.918;12.530;2023-05-17T14:38:59;1.80;;;0.90;;
13425;SDS011;6785;57.918;12.530;2023-05-17T14:41:26;1.03;;;0.80;;
13425;SDS011;6785;57.918;12.530;2023-05-17T14:43:53;2.43;;;1.10;;
13425;SDS011;6785;57.918;12.530;2023-05-17T14:46:20;2.73;;;0.80;;
13425;SDS011;6785;57.918;12.530;2023-05-17T14:48:47;1.43;;;0.87;;
13425;SDS011;6785;57.918;12.530;2023-05-17T14:51:16;4.17;;;0.90;;
13425;SDS011;6785;57.918;12.530;2023-05-17T14:53:44;6.30;;;0.90;;
13425;SDS011;6785;57.918;12.530;2023-05-17T14:56:10;0.93;;;0.83;;